createdAt,value
2018-11-14T00:00:37.827Z,7.27
2018-11-14T00:03:09.504Z,6.87
2018-11-14T00:05:38.257Z,6.67
2018-11-14T00:08:06.992Z,6.20
2018-11-14T00:10:35.604Z,6.50
2018-11-14T00:13:04.134Z,5.57
2018-11-14T00:15:32.736Z,6.37
2018-11-14T00:18:01.317Z,6.30
2018-11-14T00:20:31.599Z,6.80
2018-11-14T00:23:14.125Z,6.40
2018-11-14T00:25:42.752Z,6.53
2018-11-14T00:28:11.840Z,6.30
2018-11-14T00:30:41.578Z,6.93
2018-11-14T00:33:10.108Z,6.13
2018-11-14T00:35:38.775Z,6.10
2018-11-14T00:38:07.350Z,6.10
2018-11-14T00:40:35.904Z,6.90
2018-11-14T00:43:04.927Z,5.77
2018-11-14T00:45:33.488Z,6.63
2018-11-14T00:48:02.062Z,6.60
2018-11-14T00:50:30.705Z,6.40
2018-11-14T00:52:59.178Z,6.77
2018-11-14T00:55:27.791Z,6.17
2018-11-14T00:57:56.756Z,6.30
2018-11-14T01:00:26.042Z,6.53
2018-11-14T01:02:55.137Z,6.50
2018-11-14T01:05:23.747Z,5.70
2018-11-14T01:07:52.219Z,6.10
2018-11-14T01:10:21.791Z,6.10
2018-11-14T01:12:50.935Z,6.10
2018-11-14T01:15:20.683Z,6.50
2018-11-14T01:17:49.156Z,6.00
2018-11-14T01:20:18.729Z,5.90
2018-11-14T01:22:47.473Z,6.00
2018-11-14T01:25:16.716Z,6.63
2018-11-14T01:27:45.605Z,6.30
2018-11-14T01:30:17.191Z,6.07
2018-11-14T01:32:46.625Z,7.40
2018-11-14T01:35:15.890Z,6.67
2018-11-14T01:37:44.407Z,7.83
2018-11-14T01:40:21.577Z,7.20
2018-11-14T01:42:51.353Z,6.93
2018-11-14T01:45:19.951Z,7.00
2018-11-14T01:47:48.571Z,7.10
2018-11-14T01:50:17.251Z,7.47
2018-11-14T01:52:45.779Z,6.77
2018-11-14T01:55:15.576Z,6.43
2018-11-14T01:57:44.075Z,7.53
2018-11-14T02:04:14.326Z,7.10
2018-11-14T02:07:03.819Z,8.30
2018-11-14T02:09:33.243Z,7.10
2018-11-14T02:12:01.748Z,7.33
2018-11-14T02:14:48.162Z,7.20
2018-11-14T02:17:41.988Z,7.30
2018-11-14T02:23:13.796Z,7.13
2018-11-14T02:30:58.990Z,7.27
2018-11-14T02:33:48.422Z,6.87
2018-11-14T02:36:32.641Z,6.70
2018-11-14T02:39:23.037Z,7.80
2018-11-14T02:42:01.335Z,7.70
2018-11-14T02:44:34.525Z,7.37
2018-11-14T02:47:03.066Z,7.53
2018-11-14T02:49:32.606Z,7.33
2018-11-14T02:52:01.169Z,7.50
2018-11-14T02:54:29.738Z,7.07
2018-11-14T02:56:58.262Z,7.40
2018-11-14T02:59:26.775Z,6.93
2018-11-14T03:01:55.334Z,6.97
2018-11-14T03:04:23.817Z,6.73
2018-11-14T03:06:52.342Z,7.33
2018-11-14T03:09:20.955Z,7.00
2018-11-14T03:11:49.489Z,6.30
2018-11-14T03:14:24.622Z,6.53
2018-11-14T03:16:53.096Z,6.30
2018-11-14T03:19:21.592Z,6.43
2018-11-14T03:21:50.146Z,6.27
2018-11-14T03:24:18.686Z,6.97
2018-11-14T03:26:47.208Z,6.20
2018-11-14T03:29:15.757Z,6.60
2018-11-14T03:31:44.322Z,6.17
2018-11-14T03:34:12.836Z,6.77
2018-11-14T03:36:41.354Z,6.33
2018-11-14T03:39:10.365Z,7.17
2018-11-14T03:41:38.886Z,6.97
2018-11-14T03:44:07.540Z,6.37
2018-11-14T03:46:36.015Z,6.50
2018-11-14T03:49:04.699Z,6.93
2018-11-14T03:51:33.323Z,6.90
2018-11-14T03:54:01.849Z,6.87
2018-11-14T03:56:30.373Z,7.23
2018-11-14T03:58:58.936Z,7.07
2018-11-14T04:01:27.455Z,6.80
2018-11-14T04:03:55.956Z,6.73
2018-11-14T04:06:24.476Z,6.73
2018-11-14T04:08:52.988Z,7.07
2018-11-14T04:11:21.543Z,7.60
2018-11-14T04:13:50.056Z,8.80
2018-11-14T04:16:18.538Z,10.17
2018-11-14T04:18:47.058Z,9.80
2018-11-14T04:21:15.612Z,11.80
2018-11-14T04:23:49.368Z,13.10
2018-11-14T04:26:17.934Z,12.50
2018-11-14T04:28:47.021Z,12.17
2018-11-14T04:31:15.758Z,10.10
2018-11-14T04:33:44.659Z,9.60
2018-11-14T04:36:13.182Z,7.57
2018-11-14T04:38:41.738Z,8.13
2018-11-14T04:41:10.281Z,8.17
2018-11-14T04:43:38.753Z,7.73
2018-11-14T04:46:07.258Z,8.43
2018-11-14T04:48:35.840Z,8.03
2018-11-14T04:51:04.684Z,8.90
2018-11-14T04:53:33.209Z,7.93
2018-11-14T04:56:01.753Z,8.30
2018-11-14T04:58:30.255Z,8.40
2018-11-14T05:00:58.769Z,9.07
2018-11-14T05:03:27.347Z,10.53
2018-11-14T05:05:55.864Z,9.77
2018-11-14T05:08:24.422Z,20.13
2018-11-14T05:10:52.999Z,25.53
2018-11-14T05:13:21.526Z,25.20
2018-11-14T05:15:50.075Z,25.83
2018-11-14T05:18:18.609Z,13.13
2018-11-14T05:20:47.159Z,11.37
2018-11-14T05:23:15.667Z,9.17
2018-11-14T05:25:44.191Z,8.73
2018-11-14T05:28:12.717Z,9.93
2018-11-14T05:30:41.263Z,9.20
2018-11-14T05:33:09.817Z,9.73
2018-11-14T05:35:38.321Z,9.03
2018-11-14T05:38:06.840Z,11.10
2018-11-14T05:40:35.409Z,25.27
2018-11-14T05:43:04.056Z,26.40
2018-11-14T05:45:32.574Z,29.27
2018-11-14T05:48:01.108Z,55.07
2018-11-14T05:50:29.601Z,21.47
2018-11-14T05:52:58.088Z,16.47
2018-11-14T05:55:26.852Z,15.90
2018-11-14T05:57:55.430Z,14.37
2018-11-14T06:00:31.261Z,13.60
2018-11-14T06:03:00.854Z,11.87
2018-11-14T06:05:29.447Z,10.10
2018-11-14T06:07:57.941Z,11.80
2018-11-14T06:10:26.583Z,11.60
2018-11-14T06:12:56.430Z,10.33
2018-11-14T06:15:25.011Z,12.30
2018-11-14T06:17:54.514Z,45.07
2018-11-14T06:20:23.285Z,64.87
2018-11-14T06:22:52.418Z,44.13
2018-11-14T06:25:25.176Z,23.27
2018-11-14T06:27:55.597Z,23.60
2018-11-14T06:30:24.451Z,14.20
2018-11-14T06:32:53.654Z,11.00
2018-11-14T06:35:22.544Z,10.93
2018-11-14T06:37:51.841Z,10.33
2018-11-14T06:40:20.523Z,10.97
2018-11-14T06:42:49.102Z,10.83
2018-11-14T06:45:19.844Z,11.10
2018-11-14T06:47:49.472Z,11.53
2018-11-14T06:50:18.005Z,11.33
2018-11-14T06:52:47.587Z,11.37
2018-11-14T06:55:17.436Z,11.83
2018-11-14T06:57:46.012Z,11.67
2018-11-14T07:00:16.837Z,11.23
2018-11-14T07:02:46.319Z,12.03
2018-11-14T07:05:17.266Z,11.50
2018-11-14T07:07:46.231Z,10.87
2018-11-14T07:10:17.600Z,10.80
2018-11-14T07:12:46.244Z,10.90
2018-11-14T07:15:17.976Z,12.03
2018-11-14T07:17:47.126Z,12.77
2018-11-14T07:20:22.146Z,10.73
2018-11-14T07:22:51.726Z,10.87
2018-11-14T07:25:20.688Z,11.23
2018-11-14T07:27:49.353Z,13.53
2018-11-14T07:30:19.774Z,12.57
2018-11-14T07:32:50.754Z,13.87
2018-11-14T07:35:19.531Z,13.10
2018-11-14T07:39:00.702Z,15.00
2018-11-14T07:41:34.563Z,14.57
2018-11-14T07:44:03.151Z,15.53
2018-11-14T07:46:32.521Z,22.83
2018-11-14T07:49:01.370Z,15.23
2018-11-14T07:51:29.986Z,15.47
2018-11-14T07:53:58.803Z,13.63
2018-11-14T07:56:27.456Z,13.03
2018-11-14T07:58:56.092Z,16.37
2018-11-14T08:01:24.805Z,19.70
2018-11-14T08:03:53.336Z,15.97
2018-11-14T08:09:39.807Z,12.33
2018-11-14T08:12:08.480Z,15.20
2018-11-14T08:14:36.974Z,15.40
2018-11-14T08:17:05.574Z,11.43
2018-11-14T08:19:34.094Z,12.37
2018-11-14T08:22:02.560Z,10.90
2018-11-14T08:24:31.057Z,11.20
2018-11-14T08:26:59.594Z,11.30
2018-11-14T08:29:28.075Z,10.20
2018-11-14T08:31:56.604Z,10.97
2018-11-14T08:34:25.135Z,10.77
2018-11-14T08:36:53.613Z,12.50
2018-11-14T08:39:22.169Z,16.60
2018-11-14T08:41:50.631Z,13.33
2018-11-14T08:44:20.006Z,14.30
2018-11-14T08:46:48.516Z,15.40
2018-11-14T08:49:17.088Z,22.70
2018-11-14T08:51:45.642Z,18.70
2018-11-14T08:54:14.127Z,18.53
2018-11-14T08:56:42.708Z,18.03
2018-11-14T08:59:11.272Z,23.63
2018-11-14T09:01:39.915Z,23.10
2018-11-14T09:04:08.497Z,16.53
2018-11-14T09:06:37.012Z,15.53
2018-11-14T09:09:08.444Z,19.13
2018-11-14T09:11:37.009Z,15.47
2018-11-14T09:14:05.861Z,11.93
2018-11-14T09:16:34.366Z,12.23
2018-11-14T09:19:02.879Z,12.07
2018-11-14T09:21:31.363Z,12.37
2018-11-14T09:23:59.904Z,11.63
2018-11-14T09:26:28.407Z,12.73
2018-11-14T09:28:56.992Z,13.43
2018-11-14T09:31:25.565Z,13.27
2018-11-14T09:33:54.163Z,13.07
2018-11-14T09:36:22.662Z,15.43
2018-11-14T09:38:51.157Z,11.90
2018-11-14T09:41:19.783Z,11.03
2018-11-14T09:43:48.233Z,13.97
2018-11-14T09:46:16.737Z,12.80
2018-11-14T09:48:45.294Z,10.80
2018-11-14T09:51:13.843Z,10.80
2018-11-14T09:53:42.449Z,10.03
2018-11-14T09:56:11.046Z,10.83
2018-11-14T09:58:39.668Z,11.30
2018-11-14T10:01:08.202Z,11.63
2018-11-14T10:03:36.869Z,12.30
2018-11-14T10:06:09.506Z,11.37
2018-11-14T10:08:38.884Z,12.27
2018-11-14T10:11:07.364Z,12.17
2018-11-14T10:13:35.967Z,11.03
2018-11-14T10:16:04.499Z,10.63
2018-11-14T10:19:16.775Z,12.13
2018-11-14T10:22:00.911Z,11.37
2018-11-14T10:24:47.857Z,11.20
2018-11-14T10:27:16.952Z,10.90
2018-11-14T10:29:45.711Z,10.80
2018-11-14T10:32:14.327Z,11.23
2018-11-14T10:34:42.869Z,10.27
2018-11-14T10:37:11.396Z,15.70
2018-11-14T10:39:39.959Z,10.37
2018-11-14T10:42:08.527Z,11.13
2018-11-14T10:44:37.071Z,11.40
2018-11-14T10:47:05.659Z,10.00
2018-11-14T10:49:34.247Z,9.60
2018-11-14T10:52:02.760Z,10.50
2018-11-14T10:54:31.360Z,13.07
2018-11-14T10:56:59.924Z,12.20
2018-11-14T10:59:28.504Z,11.73
2018-11-14T11:02:02.460Z,12.07
2018-11-14T11:04:36.337Z,16.40
2018-11-14T11:07:10.358Z,20.70
2018-11-14T11:09:44.212Z,15.47
2018-11-14T11:12:18.149Z,13.93
2018-11-14T11:14:51.997Z,11.77
2018-11-14T11:17:25.665Z,9.83
2018-11-14T11:19:54.344Z,10.50
2018-11-14T11:22:29.615Z,10.00
2018-11-14T11:24:58.165Z,8.90
2018-11-14T11:27:26.647Z,9.97
2018-11-14T11:29:55.195Z,9.73
2018-11-14T11:32:23.738Z,8.93
2018-11-14T11:34:52.202Z,8.17
2018-11-14T11:37:20.740Z,8.10
2018-11-14T11:39:49.231Z,8.10
2018-11-14T11:42:17.792Z,8.77
2018-11-14T11:44:47.357Z,8.57
2018-11-14T11:47:15.858Z,7.87
2018-11-14T11:49:44.353Z,9.43
2018-11-14T11:52:12.850Z,8.87
2018-11-14T11:54:41.352Z,8.70
2018-11-14T11:57:09.818Z,8.57
2018-11-14T11:59:38.421Z,8.43
2018-11-14T12:02:06.998Z,8.57
2018-11-14T12:04:35.496Z,8.73
2018-11-14T12:07:04.567Z,8.27
2018-11-14T12:09:33.128Z,7.53
2018-11-14T12:12:01.739Z,7.93
2018-11-14T12:14:30.303Z,7.80
2018-11-14T12:16:58.890Z,7.30
2018-11-14T12:19:27.535Z,7.60
2018-11-14T12:21:56.096Z,9.87
2018-11-14T12:24:25.267Z,14.57
2018-11-14T12:27:28.376Z,9.67
2018-11-14T12:29:57.742Z,21.03
2018-11-14T12:32:26.351Z,8.37
2018-11-14T12:34:55.945Z,10.77
2018-11-14T12:37:24.475Z,10.00
2018-11-14T12:39:53.129Z,14.03
2018-11-14T12:42:21.885Z,11.40
2018-11-14T12:44:51.030Z,9.17
2018-11-14T12:47:19.825Z,12.00
2018-11-14T12:49:48.328Z,12.40
2018-11-14T12:52:16.825Z,15.70
2018-11-14T12:54:52.212Z,16.97
2018-11-14T12:57:20.783Z,13.47
2018-11-14T12:59:49.265Z,9.43
2018-11-14T13:02:18.169Z,14.70
2018-11-14T13:04:47.014Z,11.93
2018-11-14T13:07:15.536Z,13.10
2018-11-14T13:09:44.228Z,12.33
2018-11-14T13:12:12.815Z,14.37
2018-11-14T13:14:41.368Z,10.07
2018-11-14T13:17:09.911Z,10.90
2018-11-14T13:19:38.584Z,13.40
2018-11-14T13:22:07.646Z,11.77
2018-11-14T13:24:42.491Z,13.33
2018-11-14T13:27:11.369Z,15.67
2018-11-14T13:29:40.072Z,11.90
2018-11-14T13:32:08.791Z,12.37
2018-11-14T13:34:37.266Z,11.23
2018-11-14T13:37:05.970Z,12.43
2018-11-14T13:39:34.591Z,15.63
2018-11-14T13:42:03.458Z,12.70
2018-11-14T13:44:32.136Z,12.20
2018-11-14T13:47:00.764Z,9.23
2018-11-14T13:49:29.449Z,7.90
2018-11-14T13:54:42.495Z,15.90
2018-11-14T13:57:11.139Z,14.70
2018-11-14T13:59:39.777Z,9.10
2018-11-14T14:02:08.333Z,12.47
2018-11-14T14:04:36.838Z,13.73
2018-11-14T14:07:05.433Z,8.03
2018-11-14T14:09:34.078Z,6.33
2018-11-14T14:12:02.612Z,6.70
2018-11-14T14:14:31.090Z,6.60
2018-11-14T14:16:59.591Z,7.47
2018-11-14T14:19:28.118Z,7.10
2018-11-14T14:21:56.704Z,6.63
2018-11-14T14:24:25.276Z,7.50
2018-11-14T14:26:53.779Z,5.97
2018-11-14T14:29:22.620Z,6.73
2018-11-14T14:31:51.134Z,7.40
2018-11-14T14:34:19.656Z,7.20
2018-11-14T14:36:48.260Z,6.93
2018-11-14T14:39:16.781Z,6.87
2018-11-14T14:41:45.292Z,6.80
2018-11-14T14:44:13.767Z,6.53
2018-11-14T14:46:42.309Z,6.67
2018-11-14T14:49:10.903Z,7.03
2018-11-14T14:51:39.499Z,9.47
2018-11-14T14:54:08.083Z,9.07
2018-11-14T14:56:36.641Z,9.00
2018-11-14T14:59:05.487Z,9.97
2018-11-14T15:01:34.075Z,14.07
2018-11-14T15:04:03.263Z,15.23
2018-11-14T15:06:36.084Z,8.03
2018-11-14T15:09:06.974Z,7.90
2018-11-14T15:11:35.582Z,8.90
2018-11-14T15:14:04.713Z,11.40
2018-11-14T15:16:34.083Z,9.97
2018-11-14T15:19:02.699Z,8.37
2018-11-14T15:21:31.333Z,7.93
2018-11-14T15:23:59.815Z,8.47
2018-11-14T15:26:28.585Z,7.73
2018-11-14T15:28:57.264Z,8.60
2018-11-14T15:31:25.724Z,7.73
2018-11-14T15:33:54.428Z,9.67
2018-11-14T15:36:41.424Z,9.17
2018-11-14T15:39:11.707Z,8.53
2018-11-14T15:41:40.518Z,9.03
2018-11-14T15:44:09.187Z,8.50
2018-11-14T15:46:37.798Z,9.43
2018-11-14T15:49:06.407Z,9.13
2018-11-14T15:51:43.059Z,8.47
2018-11-14T15:54:11.535Z,9.20
2018-11-14T15:56:40.068Z,9.10
2018-11-14T15:59:08.645Z,9.13
2018-11-14T16:01:37.203Z,8.67
2018-11-14T16:04:06.206Z,8.80
2018-11-14T16:06:34.817Z,8.97
2018-11-14T16:09:03.788Z,9.70
2018-11-14T16:11:32.549Z,9.47
2018-11-14T16:14:01.261Z,9.40
2018-11-14T16:16:29.780Z,10.47
2018-11-14T16:18:58.373Z,10.40
2018-11-14T16:21:28.677Z,9.43
2018-11-14T16:23:57.141Z,9.30
2018-11-14T16:26:25.904Z,10.43
2018-11-14T16:28:54.429Z,10.13
2018-11-14T16:31:24.381Z,10.23
2018-11-14T16:33:53.333Z,9.87
2018-11-14T16:36:22.000Z,10.17
2018-11-14T16:38:50.528Z,10.60
2018-11-14T16:41:19.141Z,9.60
2018-11-14T16:43:47.757Z,9.67
2018-11-14T16:46:16.253Z,22.13
2018-11-14T16:48:45.795Z,11.00
2018-11-14T16:51:14.271Z,9.93
2018-11-14T16:53:42.812Z,10.37
2018-11-14T16:56:11.299Z,9.50
2018-11-14T16:58:39.967Z,10.03
2018-11-14T17:01:09.206Z,9.70
2018-11-14T17:03:37.772Z,10.43
2018-11-14T17:06:07.314Z,9.93
2018-11-14T17:08:35.866Z,9.53
2018-11-14T17:11:04.540Z,9.60
2018-11-14T17:13:33.145Z,10.67
2018-11-14T17:16:02.002Z,9.37
2018-11-14T17:18:30.696Z,9.90
2018-11-14T17:20:59.475Z,9.40
2018-11-14T17:23:28.101Z,9.83
2018-11-14T17:25:58.299Z,9.80
2018-11-14T17:28:26.843Z,9.67
2018-11-14T17:30:55.347Z,9.80
2018-11-14T17:33:24.289Z,9.67
2018-11-14T17:35:53.008Z,10.50
2018-11-14T17:38:21.498Z,9.60
2018-11-14T17:40:51.290Z,9.77
2018-11-14T17:43:19.972Z,10.10
2018-11-14T17:45:49.162Z,11.10
2018-11-14T17:48:18.043Z,10.57
2018-11-14T17:50:46.665Z,11.57
2018-11-14T17:55:53.016Z,10.03
2018-11-14T17:58:22.788Z,10.43
2018-11-14T18:00:52.754Z,11.60
2018-11-14T18:03:28.184Z,10.83
2018-11-14T18:05:59.502Z,11.80
2018-11-14T18:08:28.447Z,10.70
2018-11-14T18:10:56.918Z,11.57
2018-11-14T18:13:25.622Z,12.53
2018-11-14T18:15:54.307Z,13.48
2018-11-14T18:18:23.077Z,11.50
2018-11-14T18:20:51.741Z,11.17
2018-11-14T18:23:20.310Z,10.73
2018-11-14T18:25:49.324Z,10.23
2018-11-14T18:28:17.827Z,10.60
2018-11-14T18:30:48.265Z,10.60
2018-11-14T18:33:17.082Z,11.10
2018-11-14T18:35:45.793Z,11.30
2018-11-14T18:38:14.379Z,11.00
2018-11-14T18:40:43.168Z,10.80
2018-11-14T18:43:11.855Z,10.90
2018-11-14T18:45:41.967Z,11.10
2018-11-14T18:48:10.559Z,12.27
2018-11-14T18:50:39.243Z,11.03
2018-11-14T18:53:07.932Z,11.30
2018-11-14T18:55:50.405Z,12.83
2018-11-14T18:58:19.313Z,12.40
2018-11-14T19:00:47.865Z,13.70
2018-11-14T19:03:16.473Z,12.63
2018-11-14T19:05:45.105Z,13.90
2018-11-14T19:08:13.961Z,13.43
2018-11-14T19:10:43.174Z,13.23
2018-11-14T19:13:11.759Z,14.80
2018-11-14T19:15:40.338Z,13.87
2018-11-14T19:18:09.008Z,14.77
2018-11-14T19:20:37.577Z,14.37
2018-11-14T19:23:06.843Z,13.40
2018-11-14T19:25:36.459Z,15.20
2018-11-14T19:28:05.290Z,13.17
2018-11-14T19:30:35.678Z,13.60
2018-11-14T19:33:04.520Z,13.43
2018-11-14T19:35:33.071Z,14.23
2018-11-14T19:38:02.035Z,14.47
2018-11-14T19:40:32.008Z,13.93
2018-11-14T19:43:01.852Z,13.43
2018-11-14T19:45:33.037Z,13.20
2018-11-14T19:48:01.669Z,13.43
2018-11-14T19:50:30.311Z,14.17
2018-11-14T19:52:58.908Z,14.37
2018-11-14T19:55:28.104Z,14.93
2018-11-14T19:57:58.235Z,15.17
2018-11-14T20:00:34.627Z,17.07
2018-11-14T20:03:04.597Z,14.40
2018-11-14T20:05:33.195Z,14.50
2018-11-14T20:08:01.759Z,14.00
2018-11-14T20:10:32.650Z,13.37
2018-11-14T20:13:01.214Z,14.43
2018-11-14T20:15:32.086Z,13.30
2018-11-14T20:18:00.739Z,12.80
2018-11-14T20:20:30.666Z,13.93
2018-11-14T20:22:59.372Z,13.63
2018-11-14T20:25:28.207Z,14.87
2018-11-14T20:27:57.015Z,14.30
2018-11-14T20:30:27.102Z,14.27
2018-11-14T20:32:57.209Z,14.20
2018-11-14T20:35:26.631Z,13.97
2018-11-14T20:37:55.896Z,15.67
2018-11-14T20:40:26.187Z,14.83
2018-11-14T20:42:55.423Z,14.93
2018-11-14T20:45:26.149Z,13.90
2018-11-14T20:47:54.786Z,14.27
2018-11-14T20:50:24.356Z,14.77
2018-11-14T20:52:55.965Z,14.87
2018-11-14T20:55:24.695Z,15.13
2018-11-14T20:57:53.306Z,14.40
2018-11-14T21:00:29.791Z,14.33
2018-11-14T21:02:58.572Z,14.50
2018-11-14T21:05:28.960Z,14.63
2018-11-14T21:07:58.207Z,14.17
2018-11-14T21:10:29.168Z,14.47
2018-11-14T21:12:58.310Z,13.33
2018-11-14T21:15:28.419Z,15.30
2018-11-14T21:17:58.137Z,14.83
2018-11-14T21:20:26.713Z,14.03
2018-11-14T21:22:55.467Z,17.00
2018-11-14T21:25:24.856Z,14.63
2018-11-14T21:27:54.275Z,13.90
2018-11-14T21:30:24.319Z,14.70
2018-11-14T21:32:52.922Z,15.00
2018-11-14T21:35:25.012Z,14.67
2018-11-14T21:37:59.132Z,14.60
2018-11-14T21:40:28.001Z,14.40
2018-11-14T21:42:56.644Z,13.97
2018-11-14T21:45:26.887Z,15.20
2018-11-14T21:48:00.818Z,15.47
2018-11-14T21:50:30.305Z,15.80
2018-11-14T21:52:59.608Z,15.47
2018-11-14T21:55:28.135Z,14.33
2018-11-14T21:57:56.777Z,15.53
2018-11-14T22:00:31.410Z,14.97
2018-11-14T22:03:00.302Z,18.13
2018-11-14T22:08:31.611Z,14.77
2018-11-14T22:11:00.160Z,15.73
2018-11-14T22:13:28.756Z,15.23
2018-11-14T22:15:57.344Z,15.77
2018-11-14T22:18:25.981Z,15.47
2018-11-14T22:20:54.505Z,15.67
2018-11-14T22:23:23.116Z,16.43
2018-11-14T22:25:51.788Z,15.90
2018-11-14T22:28:20.670Z,16.50
2018-11-14T22:30:49.342Z,15.43
2018-11-14T22:33:17.900Z,16.37
2018-11-14T22:37:24.806Z,16.80
2018-11-14T22:39:53.592Z,14.83
2018-11-14T22:42:23.097Z,15.97
2018-11-14T22:44:52.712Z,16.27
2018-11-14T22:47:21.630Z,15.17
2018-11-14T22:49:50.128Z,16.20
2018-11-14T22:52:19.086Z,15.33
2018-11-14T22:54:47.674Z,17.03
2018-11-14T22:57:16.404Z,15.80
2018-11-14T22:59:44.974Z,16.97
2018-11-14T23:02:13.858Z,15.13
2018-11-14T23:04:42.654Z,15.33
2018-11-14T23:07:11.210Z,15.13
2018-11-14T23:09:39.755Z,15.50
2018-11-14T23:12:08.268Z,16.40
2018-11-14T23:14:37.734Z,16.00
2018-11-14T23:17:06.437Z,15.37
2018-11-14T23:19:35.007Z,15.13
2018-11-14T23:22:03.495Z,19.67
2018-11-14T23:24:32.082Z,14.87
2018-11-14T23:27:00.585Z,15.70
2018-11-14T23:29:29.151Z,15.63
2018-11-14T23:31:57.692Z,15.97
2018-11-14T23:34:26.187Z,16.53
2018-11-14T23:36:54.804Z,16.30
2018-11-14T23:39:23.461Z,16.47
2018-11-14T23:41:51.944Z,17.47
2018-11-14T23:44:20.464Z,15.83
2018-11-14T23:46:48.982Z,15.80
2018-11-14T23:49:17.492Z,15.13
2018-11-14T23:51:53.417Z,15.93
2018-11-14T23:54:21.905Z,16.10
2018-11-14T23:56:50.447Z,18.30
2018-11-14T23:59:19.046Z,17.67
